Aviation Digital Data Service (ADDS)

Output produced by METARs form (1113 UTC 17 June 2019)
found at http://www.aviationweather.gov/metar/data/
 
METAR text: YBCS 171100Z AUTO 17002KT 9999 // BKN084 21/18 Q1017 RMK RF00.0/000.0 FM1100 16008KT 9999 FEW025 SCT070
Conditions at: YBCS (CAIRNS AIRPORT , AU) observed 1100 UTC 17 June 2019
Temperature: 21.0°C (70°F)
Dewpoint: 18.0°C (64°F) [RH = 83%]
Pressure (altimeter): 30.03 inches Hg (1017.0 mb)
Winds: from the S (170 degrees) at 2 MPH (2 knots; 1.0 m/s)
Visibility: 6 or more miles (10+ km)
Ceiling: 8400 feet AGL
Clouds: broken clouds at 8400 feet AGL
Weather: no significant weather observed at this time

METAR text: YBCS 171030Z AUTO 15005KT 110V190 9999 // BKN086 22/18 Q1017 RMK RF00.0/000.0 FM1030 17008KT 9999 FEW025 SCT070
Conditions at: YBCS (CAIRNS AIRPORT , AU) observed 1030 UTC 17 June 2019
Temperature: 22.0°C (72°F)
Dewpoint: 18.0°C (64°F) [RH = 78%]
Pressure (altimeter): 30.03 inches Hg (1017.0 mb)
Winds: from the SSE (150 degrees) at 6 MPH (5 knots; 2.6 m/s)
Visibility: 6 or more miles (10+ km)
Ceiling: 8600 feet AGL
Clouds: broken clouds at 8600 feet AGL
Weather: no significant weather observed at this time

METAR text: YBCS 171000Z AUTO 17007KT 9999 // NCD 22/19 Q1016 RMK RF00.0/000.0 FM1000 16008KT 9999 FEW025 SCT070
Conditions at: YBCS (CAIRNS AIRPORT , AU) observed 1000 UTC 17 June 2019
Temperature: 22.0°C (72°F)
Dewpoint: 19.0°C (66°F) [RH = 83%]
Pressure (altimeter): 30.00 inches Hg (1016.0 mb)
Winds: from the S (170 degrees) at 8 MPH (7 knots; 3.6 m/s)
Visibility: 6 or more miles (10+ km)
Ceiling: at least 12,000 feet AGL
Clouds: sky clear below 12,000 feet AGL
Weather: no significant weather observed at this time

METAR text: YBCS 170930Z AUTO 17007KT 9999 // SCT086 23/18 Q1016 RMK RF00.0/000.0 FM0930 16008KT 9999 FEW025 SCT070
Conditions at: YBCS (CAIRNS AIRPORT , AU) observed 0930 UTC 17 June 2019
Temperature: 23.0°C (73°F)
Dewpoint: 18.0°C (64°F) [RH = 73%]
Pressure (altimeter): 30.00 inches Hg (1016.0 mb)
Winds: from the S (170 degrees) at 8 MPH (7 knots; 3.6 m/s)
Visibility: 6 or more miles (10+ km)
Ceiling: at least 12,000 feet AGL
Clouds: scattered clouds at 8600 feet AGL
Weather: no significant weather observed at this time

METAR text: YBCS 170900Z AUTO 16004KT 9999 // BKN086 23/18 Q1016 RMK RF00.0/000.0 NOSIG
Conditions at: YBCS (CAIRNS AIRPORT , AU) observed 0900 UTC 17 June 2019
Temperature: 23.0°C (73°F)
Dewpoint: 18.0°C (64°F) [RH = 73%]
Pressure (altimeter): 30.00 inches Hg (1016.0 mb)
Winds: from the SSE (160 degrees) at 5 MPH (4 knots; 2.1 m/s)
Visibility: 6 or more miles (10+ km)
Ceiling: 8600 feet AGL
Clouds: broken clouds at 8600 feet AGL
Weather: no significant weather observed at this time

METAR text: YBCS 170830Z AUTO 17005KT 9999 // SCT049 OVC086 23/17 Q1015 RMK RF00.0/000.0 NOSIG
Conditions at: YBCS (CAIRNS AIRPORT , AU) observed 0830 UTC 17 June 2019
Temperature: 23.0°C (73°F)
Dewpoint: 17.0°C (63°F) [RH = 69%]
Pressure (altimeter): 29.97 inches Hg (1015.0 mb)
Winds: from the S (170 degrees) at 6 MPH (5 knots; 2.6 m/s)
Visibility: 6 or more miles (10+ km)
Ceiling: 8600 feet AGL
Clouds: scattered clouds at 4900 feet AGL
overcast cloud deck at 8600 feet AGL
Weather: no significant weather observed at this time

METAR text: YBCS 170800Z AUTO 14007KT 9999 // SCT080 23/18 Q1015 RMK RF00.0/000.0 NOSIG
Conditions at: YBCS (CAIRNS AIRPORT , AU) observed 0800 UTC 17 June 2019
Temperature: 23.0°C (73°F)
Dewpoint: 18.0°C (64°F) [RH = 73%]
Pressure (altimeter): 29.97 inches Hg (1015.0 mb)
Winds: from the SE (140 degrees) at 8 MPH (7 knots; 3.6 m/s)
Visibility: 6 or more miles (10+ km)
Ceiling: at least 12,000 feet AGL
Clouds: scattered clouds at 8000 feet AGL
Weather: no significant weather observed at this time

METAR text: YBCS 170730Z AUTO 13010KT 9999 // SCT050 BKN081 24/18 Q1015 RMK RF00.0/000.0 NOSIG
Conditions at: YBCS (CAIRNS AIRPORT , AU) observed 0730 UTC 17 June 2019
Temperature: 24.0°C (75°F)
Dewpoint: 18.0°C (64°F) [RH = 69%]
Pressure (altimeter): 29.97 inches Hg (1015.0 mb)
Winds: from the SE (130 degrees) at 12 MPH (10 knots; 5.1 m/s)
Visibility: 6 or more miles (10+ km)
Ceiling: 8100 feet AGL
Clouds: scattered clouds at 5000 feet AGL
broken clouds at 8100 feet AGL
Weather: no significant weather observed at this time

METAR text: YBCS 170700Z AUTO 13012KT 9999 // BKN050 25/18 Q1014 RMK RF00.0/000.0 NOSIG
Conditions at: YBCS (CAIRNS AIRPORT , AU) observed 0700 UTC 17 June 2019
Temperature: 25.0°C (77°F)
Dewpoint: 18.0°C (64°F) [RH = 65%]
Pressure (altimeter): 29.94 inches Hg (1014.0 mb)
Winds: from the SE (130 degrees) at 14 MPH (12 knots; 6.2 m/s)
Visibility: 6 or more miles (10+ km)
Ceiling: 5000 feet AGL
Clouds: broken clouds at 5000 feet AGL
Weather: no significant weather observed at this time

METAR text: YBCS 170630Z AUTO 11010KT 9999 // BKN050 25/19 Q1014 RMK RF00.0/000.0 NOSIG
Conditions at: YBCS (CAIRNS AIRPORT , AU) observed 0630 UTC 17 June 2019
Temperature: 25.0°C (77°F)
Dewpoint: 19.0°C (66°F) [RH = 69%]
Pressure (altimeter): 29.94 inches Hg (1014.0 mb)
Winds: from the ESE (110 degrees) at 12 MPH (10 knots; 5.1 m/s)
Visibility: 6 or more miles (10+ km)
Ceiling: 5000 feet AGL
Clouds: broken clouds at 5000 feet AGL
Weather: no significant weather observed at this time

METAR text: YBCS 170600Z AUTO 13009KT 9999 // BKN052 25/19 Q1014 RMK RF00.0/000.0 NOSIG
Conditions at: YBCS (CAIRNS AIRPORT , AU) observed 0600 UTC 17 June 2019
Temperature: 25.0°C (77°F)
Dewpoint: 19.0°C (66°F) [RH = 69%]
Pressure (altimeter): 29.94 inches Hg (1014.0 mb)
Winds: from the SE (130 degrees) at 10 MPH (9 knots; 4.6 m/s)
Visibility: 6 or more miles (10+ km)
Ceiling: 5200 feet AGL
Clouds: broken clouds at 5200 feet AGL
Weather: no significant weather observed at this time

METAR text: YBCS 170530Z AUTO 13011KT 9999 // BKN052 25/19 Q1014 RMK RF00.0/000.0 NOSIG
Conditions at: YBCS (CAIRNS AIRPORT , AU) observed 0530 UTC 17 June 2019
Temperature: 25.0°C (77°F)
Dewpoint: 19.0°C (66°F) [RH = 69%]
Pressure (altimeter): 29.94 inches Hg (1014.0 mb)
Winds: from the SE (130 degrees) at 13 MPH (11 knots; 5.7 m/s)
Visibility: 6 or more miles (10+ km)
Ceiling: 5200 feet AGL
Clouds: broken clouds at 5200 feet AGL
Weather: no significant weather observed at this time

METAR text: YBCS 170500Z AUTO 12011KT 9999 // SCT044 BKN050 OVC074 26/18 Q1014 RMK RF00.0/000.0 NOSIG
Conditions at: YBCS (CAIRNS AIRPORT , AU) observed 0500 UTC 17 June 2019
Temperature: 26.0°C (79°F)
Dewpoint: 18.0°C (64°F) [RH = 61%]
Pressure (altimeter): 29.94 inches Hg (1014.0 mb)
Winds: from the ESE (120 degrees) at 13 MPH (11 knots; 5.7 m/s)
Visibility: 6 or more miles (10+ km)
Ceiling: 5000 feet AGL
Clouds: scattered clouds at 4400 feet AGL
broken clouds at 5000 feet AGL
overcast cloud deck at 7400 feet AGL
Weather: no significant weather observed at this time

METAR text: YBCS 170430Z AUTO 12013KT 9999 // SCT048 SCT052 OVC074 26/18 Q1014 RMK RF00.0/000.0 NOSIG
Conditions at: YBCS (CAIRNS AIRPORT , AU) observed 0430 UTC 17 June 2019
Temperature: 26.0°C (79°F)
Dewpoint: 18.0°C (64°F) [RH = 61%]
Pressure (altimeter): 29.94 inches Hg (1014.0 mb)
Winds: from the ESE (120 degrees) at 15 MPH (13 knots; 6.7 m/s)
Visibility: 6 or more miles (10+ km)
Ceiling: 7400 feet AGL
Clouds: scattered clouds at 4800 feet AGL
scattered clouds at 5200 feet AGL
overcast cloud deck at 7400 feet AGL
Weather: no significant weather observed at this time

METAR text: YBCS 170400Z AUTO 12010KT 9999 // SCT039 SCT046 BKN052 27/19 Q1014 RMK RF00.0/000.0 NOSIG
Conditions at: YBCS (CAIRNS AIRPORT , AU) observed 0400 UTC 17 June 2019
Temperature: 27.0°C (81°F)
Dewpoint: 19.0°C (66°F) [RH = 62%]
Pressure (altimeter): 29.94 inches Hg (1014.0 mb)
Winds: from the ESE (120 degrees) at 12 MPH (10 knots; 5.1 m/s)
Visibility: 6 or more miles (10+ km)
Ceiling: 5200 feet AGL
Clouds: scattered clouds at 3900 feet AGL
scattered clouds at 4600 feet AGL
broken clouds at 5200 feet AGL
Weather: no significant weather observed at this time

METAR text: YBCS 170330Z AUTO 11011KT 9999 // SCT037 OVC069 27/19 Q1015 RMK RF00.0/000.0 NOSIG
Conditions at: YBCS (CAIRNS AIRPORT , AU) observed 0330 UTC 17 June 2019
Temperature: 27.0°C (81°F)
Dewpoint: 19.0°C (66°F) [RH = 62%]
Pressure (altimeter): 29.97 inches Hg (1015.0 mb)
Winds: from the ESE (110 degrees) at 13 MPH (11 knots; 5.7 m/s)
Visibility: 6 or more miles (10+ km)
Ceiling: 6900 feet AGL
Clouds: scattered clouds at 3700 feet AGL
overcast cloud deck at 6900 feet AGL
Weather: no significant weather observed at this time

METAR text: YBCS 170300Z AUTO 12010KT 9999 // OVC063 27/19 Q1015 RMK RF00.0/000.0 NOSIG
Conditions at: YBCS (CAIRNS AIRPORT , AU) observed 0300 UTC 17 June 2019
Temperature: 27.0°C (81°F)
Dewpoint: 19.0°C (66°F) [RH = 62%]
Pressure (altimeter): 29.97 inches Hg (1015.0 mb)
Winds: from the ESE (120 degrees) at 12 MPH (10 knots; 5.1 m/s)
Visibility: 6 or more miles (10+ km)
Ceiling: 6300 feet AGL
Clouds: overcast cloud deck at 6300 feet AGL
Weather: no significant weather observed at this time

METAR text: YBCS 170230Z AUTO 11008KT 9999 // BKN070 OVC080 27/19 Q1015 RMK RF00.0/000.0 NOSIG
Conditions at: YBCS (CAIRNS AIRPORT , AU) observed 0230 UTC 17 June 2019
Temperature: 27.0°C (81°F)
Dewpoint: 19.0°C (66°F) [RH = 62%]
Pressure (altimeter): 29.97 inches Hg (1015.0 mb)
Winds: from the ESE (110 degrees) at 9 MPH (8 knots; 4.1 m/s)
Visibility: 6 or more miles (10+ km)
Ceiling: 7000 feet AGL
Clouds: broken clouds at 7000 feet AGL
overcast cloud deck at 8000 feet AGL
Weather: no significant weather observed at this time

METAR text: YBCS 170200Z AUTO 13008KT 9999 // OVC065 OVC074 26/19 Q1016 RMK RF00.0/000.0 NOSIG
Conditions at: YBCS (CAIRNS AIRPORT , AU) observed 0200 UTC 17 June 2019
Temperature: 26.0°C (79°F)
Dewpoint: 19.0°C (66°F) [RH = 65%]
Pressure (altimeter): 30.00 inches Hg (1016.0 mb)
Winds: from the SE (130 degrees) at 9 MPH (8 knots; 4.1 m/s)
Visibility: 6 or more miles (10+ km)
Ceiling: 6500 feet AGL
Clouds: overcast cloud deck at 6500 feet AGL
overcast cloud deck at 7400 feet AGL
Weather: no significant weather observed at this time

METAR text: YBCS 170130Z AUTO 13011KT 9999 // BKN049 BKN055 OVC071 26/19 Q1016 RMK RF00.0/000.0 NOSIG
Conditions at: YBCS (CAIRNS AIRPORT , AU) observed 0130 UTC 17 June 2019
Temperature: 26.0°C (79°F)
Dewpoint: 19.0°C (66°F) [RH = 65%]
Pressure (altimeter): 30.00 inches Hg (1016.0 mb)
Winds: from the SE (130 degrees) at 13 MPH (11 knots; 5.7 m/s)
Visibility: 6 or more miles (10+ km)
Ceiling: 4900 feet AGL
Clouds: broken clouds at 4900 feet AGL
broken clouds at 5500 feet AGL
overcast cloud deck at 7100 feet AGL
Weather: no significant weather observed at this time

METAR text: YBCS 170100Z AUTO 17008KT 9999 // SCT047 OVC073 26/19 Q1016 RMK RF00.0/000.0 NOSIG
Conditions at: YBCS (CAIRNS AIRPORT , AU) observed 0100 UTC 17 June 2019
Temperature: 26.0°C (79°F)
Dewpoint: 19.0°C (66°F) [RH = 65%]
Pressure (altimeter): 30.00 inches Hg (1016.0 mb)
Winds: from the S (170 degrees) at 9 MPH (8 knots; 4.1 m/s)
Visibility: 6 or more miles (10+ km)
Ceiling: 7300 feet AGL
Clouds: scattered clouds at 4700 feet AGL
overcast cloud deck at 7300 feet AGL
Weather: no significant weather observed at this time

METAR text: YBCS 170030Z AUTO 16008KT 9999 // SCT045 OVC073 25/18 Q1016 RMK RF00.0/000.0 NOSIG
Conditions at: YBCS (CAIRNS AIRPORT , AU) observed 0030 UTC 17 June 2019
Temperature: 25.0°C (77°F)
Dewpoint: 18.0°C (64°F) [RH = 65%]
Pressure (altimeter): 30.00 inches Hg (1016.0 mb)
Winds: from the SSE (160 degrees) at 9 MPH (8 knots; 4.1 m/s)
Visibility: 6 or more miles (10+ km)
Ceiling: 7300 feet AGL
Clouds: scattered clouds at 4500 feet AGL
overcast cloud deck at 7300 feet AGL
Weather: no significant weather observed at this time

METAR text: YBCS 170000Z AUTO 18007KT 9999 // OVC073 25/19 Q1017 RF00.0/000.0
Conditions at: YBCS (CAIRNS AIRPORT , AU) observed 0000 UTC 17 June 2019
Temperature: 25.0°C (77°F)
Dewpoint: 19.0°C (66°F) [RH = 69%]
Pressure (altimeter): 30.03 inches Hg (1017.0 mb)
Winds: from the S (180 degrees) at 8 MPH (7 knots; 3.6 m/s)
Visibility: 6 or more miles (10+ km)
Ceiling: 7300 feet AGL
Clouds: overcast cloud deck at 7300 feet AGL
Weather: no significant weather observed at this time

METAR text: YBCS 162330Z AUTO 18007KT 9999 // OVC075 24/18 Q1017 RMK RF00.0/000.0 NOSIG
Conditions at: YBCS (CAIRNS AIRPORT , AU) observed 2330 UTC 16 June 2019
Temperature: 24.0°C (75°F)
Dewpoint: 18.0°C (64°F) [RH = 69%]
Pressure (altimeter): 30.03 inches Hg (1017.0 mb)
Winds: from the S (180 degrees) at 8 MPH (7 knots; 3.6 m/s)
Visibility: 6 or more miles (10+ km)
Ceiling: 7500 feet AGL
Clouds: overcast cloud deck at 7500 feet AGL
Weather: no significant weather observed at this time

METAR text: YBCS 162300Z AUTO 15008KT 9999 // OVC071 23/19 Q1017 RMK RF00.0/000.0 NOSIG
Conditions at: YBCS (CAIRNS AIRPORT , AU) observed 2300 UTC 16 June 2019
Temperature: 23.0°C (73°F)
Dewpoint: 19.0°C (66°F) [RH = 78%]
Pressure (altimeter): 30.03 inches Hg (1017.0 mb)
Winds: from the SSE (150 degrees) at 9 MPH (8 knots; 4.1 m/s)
Visibility: 6 or more miles (10+ km)
Ceiling: 7100 feet AGL
Clouds: overcast cloud deck at 7100 feet AGL
Weather: no significant weather observed at this time

METAR text: YBCS 162230Z AUTO 15007KT 9999 // OVC071 21/18 Q1016 RMK RF00.0/000.0 NOSIG
Conditions at: YBCS (CAIRNS AIRPORT , AU) observed 2230 UTC 16 June 2019
Temperature: 21.0°C (70°F)
Dewpoint: 18.0°C (64°F) [RH = 83%]
Pressure (altimeter): 30.00 inches Hg (1016.0 mb)
Winds: from the SSE (150 degrees) at 8 MPH (7 knots; 3.6 m/s)
Visibility: 6 or more miles (10+ km)
Ceiling: 7100 feet AGL
Clouds: overcast cloud deck at 7100 feet AGL
Weather: no significant weather observed at this time

METAR text: YBCS 162200Z AUTO 12007KT 100V160 9999 // SCT069 20/17 Q1016 NOSIG
Conditions at: YBCS (CAIRNS AIRPORT , AU) observed 2200 UTC 16 June 2019
Temperature: 20.0°C (68°F)
Dewpoint: 17.0°C (63°F) [RH = 83%]
Pressure (altimeter): 30.00 inches Hg (1016.0 mb)
Winds: from the ESE (120 degrees) at 8 MPH (7 knots; 3.6 m/s)
Visibility: 6 or more miles (10+ km)
Ceiling: at least 12,000 feet AGL
Clouds: scattered clouds at 6900 feet AGL
Weather: no significant weather observed at this time

METAR text: YBCS 162130Z AUTO 26001KT 9999 // BKN069 20/18 Q1016 RMK RF00.0/000.0 FM2200 16006KT 9999 FEW028 SCT070
Conditions at: YBCS (CAIRNS AIRPORT , AU) observed 2130 UTC 16 June 2019
Temperature: 20.0°C (68°F)
Dewpoint: 18.0°C (64°F) [RH = 88%]
Pressure (altimeter): 30.00 inches Hg (1016.0 mb)
Winds: from the W (260 degrees) at 1 MPH (1 knots; 0.5 m/s)
Visibility: 6 or more miles (10+ km)
Ceiling: 6900 feet AGL
Clouds: broken clouds at 6900 feet AGL
Weather: no significant weather observed at this time

METAR text: YBCS 162100Z AUTO 04003KT 9999 // OVC070 19/17 Q1016 RMK RF00.0/000.0 FM2200 16006KT 9999 FEW028 SCT070
Conditions at: YBCS (CAIRNS AIRPORT , AU) observed 2100 UTC 16 June 2019
Temperature: 19.0°C (66°F)
Dewpoint: 17.0°C (63°F) [RH = 88%]
Pressure (altimeter): 30.00 inches Hg (1016.0 mb)
Winds: from the NE (40 degrees) at 3 MPH (3 knots; 1.5 m/s)
Visibility: 6 or more miles (10+ km)
Ceiling: 7000 feet AGL
Clouds: overcast cloud deck at 7000 feet AGL
Weather: no significant weather observed at this time

METAR text: YBCS 162030Z AUTO 00000KT 9999 // BKN072 19/17 Q1016 RMK RF00.0/000.0 NOSIG
Conditions at: YBCS (CAIRNS AIRPORT , AU) observed 2030 UTC 16 June 2019
Temperature: 19.0°C (66°F)
Dewpoint: 17.0°C (63°F) [RH = 88%]
Pressure (altimeter): 30.00 inches Hg (1016.0 mb)
Winds: calm
Visibility: 6 or more miles (10+ km)
Ceiling: 7200 feet AGL
Clouds: broken clouds at 7200 feet AGL
Weather: no significant weather observed at this time

METAR text: YBCS 162000Z AUTO 07001KT 9999 // BKN076 19/17 Q1016 RMK RF00.0/000.0 FM2000 18007KT 9999 SCT025 BKN060
Conditions at: YBCS (CAIRNS AIRPORT , AU) observed 2000 UTC 16 June 2019
Temperature: 19.0°C (66°F)
Dewpoint: 17.0°C (63°F) [RH = 88%]
Pressure (altimeter): 30.00 inches Hg (1016.0 mb)
Winds: from the ENE (70 degrees) at 1 MPH (1 knots; 0.5 m/s)
Visibility: 6 or more miles (10+ km)
Ceiling: 7600 feet AGL
Clouds: broken clouds at 7600 feet AGL
Weather: no significant weather observed at this time

METAR text: YBCS 161930Z AUTO 00000KT 9999 // OVC074 19/17 Q1015 RMK RF00.0/000.0 FM1930 18007KT 9999 SCT025 BKN060
Conditions at: YBCS (CAIRNS AIRPORT , AU) observed 1930 UTC 16 June 2019
Temperature: 19.0°C (66°F)
Dewpoint: 17.0°C (63°F) [RH = 88%]
Pressure (altimeter): 29.97 inches Hg (1015.0 mb)
Winds: calm
Visibility: 6 or more miles (10+ km)
Ceiling: 7400 feet AGL
Clouds: overcast cloud deck at 7400 feet AGL
Weather: no significant weather observed at this time

METAR text: YBCS 161900Z AUTO 05004KT 360V100 9999 // OVC074 20/17 Q1015 RMK RF00.0/000.0 FM2000 18007KT 9999 SCT025 BKN060
Conditions at: YBCS (CAIRNS AIRPORT , AU) observed 1900 UTC 16 June 2019
Temperature: 20.0°C (68°F)
Dewpoint: 17.0°C (63°F) [RH = 83%]
Pressure (altimeter): 29.97 inches Hg (1015.0 mb)
Winds: from the NE (50 degrees) at 5 MPH (4 knots; 2.1 m/s)
Visibility: 6 or more miles (10+ km)
Ceiling: 7400 feet AGL
Clouds: overcast cloud deck at 7400 feet AGL
Weather: no significant weather observed at this time

METAR text: YBCS 161830Z AUTO 28003KT 9999 // OVC072 19/17 Q1015 RMK RF00.0/000.0 FM1830 18007KT 9999 SCT025 BKN070
Conditions at: YBCS (CAIRNS AIRPORT , AU) observed 1830 UTC 16 June 2019
Temperature: 19.0°C (66°F)
Dewpoint: 17.0°C (63°F) [RH = 88%]
Pressure (altimeter): 29.97 inches Hg (1015.0 mb)
Winds: from the W (280 degrees) at 3 MPH (3 knots; 1.5 m/s)
Visibility: 6 or more miles (10+ km)
Ceiling: 7200 feet AGL
Clouds: overcast cloud deck at 7200 feet AGL
Weather: no significant weather observed at this time

METAR text: YBCS 161800Z AUTO 00000KT 9999 // OVC072 19/17 Q1015 RMK RF00.0/000.0 FM1800 18007KT 9999 BKN025 BKN060
Conditions at: YBCS (CAIRNS AIRPORT , AU) observed 1800 UTC 16 June 2019
Temperature: 19.0°C (66°F)
Dewpoint: 17.0°C (63°F) [RH = 88%]
Pressure (altimeter): 29.97 inches Hg (1015.0 mb)
Winds: calm
Visibility: 6 or more miles (10+ km)
Ceiling: 7200 feet AGL
Clouds: overcast cloud deck at 7200 feet AGL
Weather: no significant weather observed at this time

METAR text: YBCS 161730Z AUTO 36005KT 9999 // SCT072 19/17 Q1015 RMK RF00.0/000.0 FM1730 18007KT 9999 BKN025 BKN060
Conditions at: YBCS (CAIRNS AIRPORT , AU) observed 1730 UTC 16 June 2019
Temperature: 19.0°C (66°F)
Dewpoint: 17.0°C (63°F) [RH = 88%]
Pressure (altimeter): 29.97 inches Hg (1015.0 mb)
Winds: from the N (360 degrees) at 6 MPH (5 knots; 2.6 m/s)
Visibility: 6 or more miles (10+ km)
Ceiling: at least 12,000 feet AGL
Clouds: scattered clouds at 7200 feet AGL
Weather: no significant weather observed at this time

METAR text: YBCS 161700Z AUTO 16002KT 9999 // NCD 19/17 Q1015 RMK RF00.0/000.0 FM1700 18007KT 9999 BKN025 BKN060
Conditions at: YBCS (CAIRNS AIRPORT , AU) observed 1700 UTC 16 June 2019
Temperature: 19.0°C (66°F)
Dewpoint: 17.0°C (63°F) [RH = 88%]
Pressure (altimeter): 29.97 inches Hg (1015.0 mb)
Winds: from the SSE (160 degrees) at 2 MPH (2 knots; 1.0 m/s)
Visibility: 6 or more miles (10+ km)
Ceiling: at least 12,000 feet AGL
Clouds: sky clear below 12,000 feet AGL
Weather: no significant weather observed at this time

METAR text: YBCS 161630Z AUTO 17004KT 110V230 9999 // NCD 20/17 Q1015 RMK RF00.0/000.0 FM1630 18007KT 9999 FEW030
Conditions at: YBCS (CAIRNS AIRPORT , AU) observed 1630 UTC 16 June 2019
Temperature: 20.0°C (68°F)
Dewpoint: 17.0°C (63°F) [RH = 83%]
Pressure (altimeter): 29.97 inches Hg (1015.0 mb)
Winds: from the S (170 degrees) at 5 MPH (4 knots; 2.1 m/s)
Visibility: 6 or more miles (10+ km)
Ceiling: at least 12,000 feet AGL
Clouds: sky clear below 12,000 feet AGL
Weather: no significant weather observed at this time

METAR text: YBCS 161600Z AUTO 10007KT 9999 // NCD 20/17 Q1015 RMK RF00.0/000.0 FM1600 18007KT 9999 FEW030
Conditions at: YBCS (CAIRNS AIRPORT , AU) observed 1600 UTC 16 June 2019
Temperature: 20.0°C (68°F)
Dewpoint: 17.0°C (63°F) [RH = 83%]
Pressure (altimeter): 29.97 inches Hg (1015.0 mb)
Winds: from the E (100 degrees) at 8 MPH (7 knots; 3.6 m/s)
Visibility: 6 or more miles (10+ km)
Ceiling: at least 12,000 feet AGL
Clouds: sky clear below 12,000 feet AGL
Weather: no significant weather observed at this time

METAR text: YBCS 161530Z AUTO 14002KT 9999 // NCD 20/17 Q1015 RMK RF00.0/000.0 FM1530 18007KT 9999 FEW030
Conditions at: YBCS (CAIRNS AIRPORT , AU) observed 1530 UTC 16 June 2019
Temperature: 20.0°C (68°F)
Dewpoint: 17.0°C (63°F) [RH = 83%]
Pressure (altimeter): 29.97 inches Hg (1015.0 mb)
Winds: from the SE (140 degrees) at 2 MPH (2 knots; 1.0 m/s)
Visibility: 6 or more miles (10+ km)
Ceiling: at least 12,000 feet AGL
Clouds: sky clear below 12,000 feet AGL
Weather: no significant weather observed at this time

METAR text: YBCS 161500Z AUTO 17003KT 9999 // NCD 19/17 Q1016 RMK RF00.0/000.0 FM1500 18007KT 9999 FEW030
Conditions at: YBCS (CAIRNS AIRPORT , AU) observed 1500 UTC 16 June 2019
Temperature: 19.0°C (66°F)
Dewpoint: 17.0°C (63°F) [RH = 88%]
Pressure (altimeter): 30.00 inches Hg (1016.0 mb)
Winds: from the S (170 degrees) at 3 MPH (3 knots; 1.5 m/s)
Visibility: 6 or more miles (10+ km)
Ceiling: at least 12,000 feet AGL
Clouds: sky clear below 12,000 feet AGL
Weather: no significant weather observed at this time

METAR text: YBCS 161430Z AUTO 12005KT 110V170 9999 // NCD 20/17 Q1016 RMK RF00.0/000.0 FM1430 18007KT 9999 FEW030 SCT070
Conditions at: YBCS (CAIRNS AIRPORT , AU) observed 1430 UTC 16 June 2019
Temperature: 20.0°C (68°F)
Dewpoint: 17.0°C (63°F) [RH = 83%]
Pressure (altimeter): 30.00 inches Hg (1016.0 mb)
Winds: from the ESE (120 degrees) at 6 MPH (5 knots; 2.6 m/s)
Visibility: 6 or more miles (10+ km)
Ceiling: at least 12,000 feet AGL
Clouds: sky clear below 12,000 feet AGL
Weather: no significant weather observed at this time

METAR text: YBCS 161400Z AUTO 02004KT 9999 // SCT052 20/17 Q1016 RMK RF00.0/000.0 FM1400 18007KT 9999 FEW030 SCT070
Conditions at: YBCS (CAIRNS AIRPORT , AU) observed 1400 UTC 16 June 2019
Temperature: 20.0°C (68°F)
Dewpoint: 17.0°C (63°F) [RH = 83%]
Pressure (altimeter): 30.00 inches Hg (1016.0 mb)
Winds: from the NNE (20 degrees) at 5 MPH (4 knots; 2.1 m/s)
Visibility: 6 or more miles (10+ km)
Ceiling: at least 12,000 feet AGL
Clouds: scattered clouds at 5200 feet AGL
Weather: no significant weather observed at this time

METAR text: YBCS 161330Z AUTO 19005KT 160V240 9999 // SCT073 22/18 Q1016 RMK RF00.0/000.0 FM1330 18007KT 9999 FEW030 SCT070
Conditions at: YBCS (CAIRNS AIRPORT , AU) observed 1330 UTC 16 June 2019
Temperature: 22.0°C (72°F)
Dewpoint: 18.0°C (64°F) [RH = 78%]
Pressure (altimeter): 30.00 inches Hg (1016.0 mb)
Winds: from the S (190 degrees) at 6 MPH (5 knots; 2.6 m/s)
Visibility: 6 or more miles (10+ km)
Ceiling: at least 12,000 feet AGL
Clouds: scattered clouds at 7300 feet AGL
Weather: no significant weather observed at this time

METAR text: YBCS 161300Z AUTO 14004KT 110V210 9999 // OVC073 22/18 Q1016 RMK RF00.0/000.0 FM1300 16008KT 9999 FEW030 OVC060
Conditions at: YBCS (CAIRNS AIRPORT , AU) observed 1300 UTC 16 June 2019
Temperature: 22.0°C (72°F)
Dewpoint: 18.0°C (64°F) [RH = 78%]
Pressure (altimeter): 30.00 inches Hg (1016.0 mb)
Winds: from the SE (140 degrees) at 5 MPH (4 knots; 2.1 m/s)
Visibility: 6 or more miles (10+ km)
Ceiling: 7300 feet AGL
Clouds: overcast cloud deck at 7300 feet AGL
Weather: no significant weather observed at this time

METAR text: YBCS 161230Z AUTO 16005KT 110V200 9999 // BKN073 22/18 Q1016 RMK RF00.0/000.0 FM1230 18008KT 9999 FEW030 SCT070
Conditions at: YBCS (CAIRNS AIRPORT , AU) observed 1230 UTC 16 June 2019
Temperature: 22.0°C (72°F)
Dewpoint: 18.0°C (64°F) [RH = 78%]
Pressure (altimeter): 30.00 inches Hg (1016.0 mb)
Winds: from the SSE (160 degrees) at 6 MPH (5 knots; 2.6 m/s)
Visibility: 6 or more miles (10+ km)
Ceiling: 7300 feet AGL
Clouds: broken clouds at 7300 feet AGL
Weather: no significant weather observed at this time

METAR text: YBCS 161200Z AUTO 19008KT 9999 // SCT072 22/18 Q1016 RMK RF00.0/000.0 FM1200 18008KT 9999 FEW030 SCT070
Conditions at: YBCS (CAIRNS AIRPORT , AU) observed 1200 UTC 16 June 2019
Temperature: 22.0°C (72°F)
Dewpoint: 18.0°C (64°F) [RH = 78%]
Pressure (altimeter): 30.00 inches Hg (1016.0 mb)
Winds: from the S (190 degrees) at 9 MPH (8 knots; 4.1 m/s)
Visibility: 6 or more miles (10+ km)
Ceiling: at least 12,000 feet AGL
Clouds: scattered clouds at 7200 feet AGL
Weather: no significant weather observed at this time

METAR text: YBCS 161130Z AUTO 18007KT 9999 // OVC070 22/18 Q1017 RMK RF00.0/000.0 FM1130 18008KT 9999 FEW030 SCT070
Conditions at: YBCS (CAIRNS AIRPORT , AU) observed 1130 UTC 16 June 2019
Temperature: 22.0°C (72°F)
Dewpoint: 18.0°C (64°F) [RH = 78%]
Pressure (altimeter): 30.03 inches Hg (1017.0 mb)
Winds: from the S (180 degrees) at 8 MPH (7 knots; 3.6 m/s)
Visibility: 6 or more miles (10+ km)
Ceiling: 7000 feet AGL
Clouds: overcast cloud deck at 7000 feet AGL
Weather: no significant weather observed at this time

METAR text: YBCS 161100Z AUTO 16009KT 9999 // SCT070 22/19 Q1017 RMK RF00.0/000.0 FM1100 16008KT 9999 FEW030 BKN070
Conditions at: YBCS (CAIRNS AIRPORT , AU) observed 1100 UTC 16 June 2019
Temperature: 22.0°C (72°F)
Dewpoint: 19.0°C (66°F) [RH = 83%]
Pressure (altimeter): 30.03 inches Hg (1017.0 mb)
Winds: from the SSE (160 degrees) at 10 MPH (9 knots; 4.6 m/s)
Visibility: 6 or more miles (10+ km)
Ceiling: at least 12,000 feet AGL
Clouds: scattered clouds at 7000 feet AGL
Weather: no significant weather observed at this time

METAR text: YBCS 161030Z AUTO 17007KT 9999 // OVC070 23/19 Q1016 RMK RF00.0/000.0 FM1030 16008KT 9999 FEW030 BKN070
Conditions at: YBCS (CAIRNS AIRPORT , AU) observed 1030 UTC 16 June 2019
Temperature: 23.0°C (73°F)
Dewpoint: 19.0°C (66°F) [RH = 78%]
Pressure (altimeter): 30.00 inches Hg (1016.0 mb)
Winds: from the S (170 degrees) at 8 MPH (7 knots; 3.6 m/s)
Visibility: 6 or more miles (10+ km)
Ceiling: 7000 feet AGL
Clouds: overcast cloud deck at 7000 feet AGL
Weather: no significant weather observed at this time

METAR text: YBCS 161000Z AUTO 17007KT 9999 // OVC064 23/19 Q1016 RMK RF00.0/000.0 FM1000 16008KT 9999 FEW030 OVC060
Conditions at: YBCS (CAIRNS AIRPORT , AU) observed 1000 UTC 16 June 2019
Temperature: 23.0°C (73°F)
Dewpoint: 19.0°C (66°F) [RH = 78%]
Pressure (altimeter): 30.00 inches Hg (1016.0 mb)
Winds: from the S (170 degrees) at 8 MPH (7 knots; 3.6 m/s)
Visibility: 6 or more miles (10+ km)
Ceiling: 6400 feet AGL
Clouds: overcast cloud deck at 6400 feet AGL
Weather: no significant weather observed at this time

METAR text: YBCS 160930Z AUTO 15007KT 9999 // OVC062 23/19 Q1016 RMK RF00.0/000.0 FM0930 16008KT 9999 FEW030 OVC060
Conditions at: YBCS (CAIRNS AIRPORT , AU) observed 0930 UTC 16 June 2019
Temperature: 23.0°C (73°F)
Dewpoint: 19.0°C (66°F) [RH = 78%]
Pressure (altimeter): 30.00 inches Hg (1016.0 mb)
Winds: from the SSE (150 degrees) at 8 MPH (7 knots; 3.6 m/s)
Visibility: 6 or more miles (10+ km)
Ceiling: 6200 feet AGL
Clouds: overcast cloud deck at 6200 feet AGL
Weather: no significant weather observed at this time

METAR text: YBCS 160900Z AUTO 15005KT 9999 // SCT062 23/19 Q1016 RMK RF00.0/000.0 NOSIG
Conditions at: YBCS (CAIRNS AIRPORT , AU) observed 0900 UTC 16 June 2019
Temperature: 23.0°C (73°F)
Dewpoint: 19.0°C (66°F) [RH = 78%]
Pressure (altimeter): 30.00 inches Hg (1016.0 mb)
Winds: from the SSE (150 degrees) at 6 MPH (5 knots; 2.6 m/s)
Visibility: 6 or more miles (10+ km)
Ceiling: at least 12,000 feet AGL
Clouds: scattered clouds at 6200 feet AGL
Weather: no significant weather observed at this time

METAR text: YBCS 160830Z AUTO 16006KT 9999 // NCD 22/18 Q1016 RMK RF00.0/000.0 NOSIG
Conditions at: YBCS (CAIRNS AIRPORT , AU) observed 0830 UTC 16 June 2019
Temperature: 22.0°C (72°F)
Dewpoint: 18.0°C (64°F) [RH = 78%]
Pressure (altimeter): 30.00 inches Hg (1016.0 mb)
Winds: from the SSE (160 degrees) at 7 MPH (6 knots; 3.1 m/s)
Visibility: 6 or more miles (10+ km)
Ceiling: at least 12,000 feet AGL
Clouds: sky clear below 12,000 feet AGL
Weather: no significant weather observed at this time

METAR text: YBCS 160800Z AUTO 15008KT 9999 // NCD 23/18 Q1015 RMK RF00.0/000.0 NOSIG
Conditions at: YBCS (CAIRNS AIRPORT , AU) observed 0800 UTC 16 June 2019
Temperature: 23.0°C (73°F)
Dewpoint: 18.0°C (64°F) [RH = 73%]
Pressure (altimeter): 29.97 inches Hg (1015.0 mb)
Winds: from the SSE (150 degrees) at 9 MPH (8 knots; 4.1 m/s)
Visibility: 6 or more miles (10+ km)
Ceiling: at least 12,000 feet AGL
Clouds: sky clear below 12,000 feet AGL
Weather: no significant weather observed at this time

METAR text: YBCS 160730Z AUTO 15008KT 9999 // NCD 24/18 Q1015 RMK RF00.0/000.0 NOSIG
Conditions at: YBCS (CAIRNS AIRPORT , AU) observed 0730 UTC 16 June 2019
Temperature: 24.0°C (75°F)
Dewpoint: 18.0°C (64°F) [RH = 69%]
Pressure (altimeter): 29.97 inches Hg (1015.0 mb)
Winds: from the SSE (150 degrees) at 9 MPH (8 knots; 4.1 m/s)
Visibility: 6 or more miles (10+ km)
Ceiling: at least 12,000 feet AGL
Clouds: sky clear below 12,000 feet AGL
Weather: no significant weather observed at this time

METAR text: YBCS 160700Z AUTO 14012KT 9999 // NCD 24/18 Q1014 RMK RF00.0/000.0 NOSIG
Conditions at: YBCS (CAIRNS AIRPORT , AU) observed 0700 UTC 16 June 2019
Temperature: 24.0°C (75°F)
Dewpoint: 18.0°C (64°F) [RH = 69%]
Pressure (altimeter): 29.94 inches Hg (1014.0 mb)
Winds: from the SE (140 degrees) at 14 MPH (12 knots; 6.2 m/s)
Visibility: 6 or more miles (10+ km)
Ceiling: at least 12,000 feet AGL
Clouds: sky clear below 12,000 feet AGL
Weather: no significant weather observed at this time

METAR text: YBCS 160630Z AUTO 14015KT 9999 // NCD 25/18 Q1014 RMK RF00.0/000.0 NOSIG
Conditions at: YBCS (CAIRNS AIRPORT , AU) observed 0630 UTC 16 June 2019
Temperature: 25.0°C (77°F)
Dewpoint: 18.0°C (64°F) [RH = 65%]
Pressure (altimeter): 29.94 inches Hg (1014.0 mb)
Winds: from the SE (140 degrees) at 17 MPH (15 knots; 7.7 m/s)
Visibility: 6 or more miles (10+ km)
Ceiling: at least 12,000 feet AGL
Clouds: sky clear below 12,000 feet AGL
Weather: no significant weather observed at this time

METAR text: YBCS 160600Z AUTO 14011KT 9999 // NCD 26/18 Q1014 RMK RF00.0/000.0 NOSIG
Conditions at: YBCS (CAIRNS AIRPORT , AU) observed 0600 UTC 16 June 2019
Temperature: 26.0°C (79°F)
Dewpoint: 18.0°C (64°F) [RH = 61%]
Pressure (altimeter): 29.94 inches Hg (1014.0 mb)
Winds: from the SE (140 degrees) at 13 MPH (11 knots; 5.7 m/s)
Visibility: 6 or more miles (10+ km)
Ceiling: at least 12,000 feet AGL
Clouds: sky clear below 12,000 feet AGL
Weather: no significant weather observed at this time

METAR text: YBCS 160530Z AUTO 13010KT 9999 // NCD 27/18 Q1014 RMK RF00.0/000.0 NOSIG
Conditions at: YBCS (CAIRNS AIRPORT , AU) observed 0530 UTC 16 June 2019
Temperature: 27.0°C (81°F)
Dewpoint: 18.0°C (64°F) [RH = 58%]
Pressure (altimeter): 29.94 inches Hg (1014.0 mb)
Winds: from the SE (130 degrees) at 12 MPH (10 knots; 5.1 m/s)
Visibility: 6 or more miles (10+ km)
Ceiling: at least 12,000 feet AGL
Clouds: sky clear below 12,000 feet AGL
Weather: no significant weather observed at this time

METAR text: YBCS 160500Z AUTO 12010KT 9999 // NCD 27/18 Q1014 RMK RF00.0/000.0 NOSIG
Conditions at: YBCS (CAIRNS AIRPORT , AU) observed 0500 UTC 16 June 2019
Temperature: 27.0°C (81°F)
Dewpoint: 18.0°C (64°F) [RH = 58%]
Pressure (altimeter): 29.94 inches Hg (1014.0 mb)
Winds: from the ESE (120 degrees) at 12 MPH (10 knots; 5.1 m/s)
Visibility: 6 or more miles (10+ km)
Ceiling: at least 12,000 feet AGL
Clouds: sky clear below 12,000 feet AGL
Weather: no significant weather observed at this time

METAR text: YBCS 160430Z AUTO 13010KT 9999 // NCD 27/18 Q1014 RMK RF00.0/000.0 NOSIG
Conditions at: YBCS (CAIRNS AIRPORT , AU) observed 0430 UTC 16 June 2019
Temperature: 27.0°C (81°F)
Dewpoint: 18.0°C (64°F) [RH = 58%]
Pressure (altimeter): 29.94 inches Hg (1014.0 mb)
Winds: from the SE (130 degrees) at 12 MPH (10 knots; 5.1 m/s)
Visibility: 6 or more miles (10+ km)
Ceiling: at least 12,000 feet AGL
Clouds: sky clear below 12,000 feet AGL
Weather: no significant weather observed at this time

METAR text: YBCS 160400Z AUTO 12011KT 9999 // SCT032 27/18 Q1014 RMK RF00.0/000.0 NOSIG
Conditions at: YBCS (CAIRNS AIRPORT , AU) observed 0400 UTC 16 June 2019
Temperature: 27.0°C (81°F)
Dewpoint: 18.0°C (64°F) [RH = 58%]
Pressure (altimeter): 29.94 inches Hg (1014.0 mb)
Winds: from the ESE (120 degrees) at 13 MPH (11 knots; 5.7 m/s)
Visibility: 6 or more miles (10+ km)
Ceiling: at least 12,000 feet AGL
Clouds: scattered clouds at 3200 feet AGL
Weather: no significant weather observed at this time

METAR text: YBCS 160330Z AUTO 14010KT 9999 // SCT034 SCT039 SCT045 27/18 Q1015 RMK RF00.0/000.0 NOSIG
Conditions at: YBCS (CAIRNS AIRPORT , AU) observed 0330 UTC 16 June 2019
Temperature: 27.0°C (81°F)
Dewpoint: 18.0°C (64°F) [RH = 58%]
Pressure (altimeter): 29.97 inches Hg (1015.0 mb)
Winds: from the SE (140 degrees) at 12 MPH (10 knots; 5.1 m/s)
Visibility: 6 or more miles (10+ km)
Ceiling: at least 12,000 feet AGL
Clouds: scattered clouds at 3400 feet AGL
scattered clouds at 3900 feet AGL
scattered clouds at 4500 feet AGL
Weather: no significant weather observed at this time

METAR text: YBCS 160300Z AUTO 14010KT 9999 // SCT034 SCT038 SCT050 26/18 Q1015 RMK RF00.0/000.0 NOSIG
Conditions at: YBCS (CAIRNS AIRPORT , AU) observed 0300 UTC 16 June 2019
Temperature: 26.0°C (79°F)
Dewpoint: 18.0°C (64°F) [RH = 61%]
Pressure (altimeter): 29.97 inches Hg (1015.0 mb)
Winds: from the SE (140 degrees) at 12 MPH (10 knots; 5.1 m/s)
Visibility: 6 or more miles (10+ km)
Ceiling: at least 12,000 feet AGL
Clouds: scattered clouds at 3400 feet AGL
scattered clouds at 3800 feet AGL
scattered clouds at 5000 feet AGL
Weather: no significant weather observed at this time

METAR text: YBCS 160230Z AUTO 16009KT 9999 // SCT032 27/19 Q1015 RMK RF00.0/000.0 NOSIG
Conditions at: YBCS (CAIRNS AIRPORT , AU) observed 0230 UTC 16 June 2019
Temperature: 27.0°C (81°F)
Dewpoint: 19.0°C (66°F) [RH = 62%]
Pressure (altimeter): 29.97 inches Hg (1015.0 mb)
Winds: from the SSE (160 degrees) at 10 MPH (9 knots; 4.6 m/s)
Visibility: 6 or more miles (10+ km)
Ceiling: at least 12,000 feet AGL
Clouds: scattered clouds at 3200 feet AGL
Weather: no significant weather observed at this time

METAR text: YBCS 160200Z AUTO 17009KT 9999 // SCT034 SCT065 27/19 Q1016 RMK RF00.0/000.0 NOSIG
Conditions at: YBCS (CAIRNS AIRPORT , AU) observed 0200 UTC 16 June 2019
Temperature: 27.0°C (81°F)
Dewpoint: 19.0°C (66°F) [RH = 62%]
Pressure (altimeter): 30.00 inches Hg (1016.0 mb)
Winds: from the S (170 degrees) at 10 MPH (9 knots; 4.6 m/s)
Visibility: 6 or more miles (10+ km)
Ceiling: at least 12,000 feet AGL
Clouds: scattered clouds at 3400 feet AGL
scattered clouds at 6500 feet AGL
Weather: no significant weather observed at this time

METAR text: YBCS 160130Z AUTO 17009KT 9999 // OVC067 26/19 Q1016 RMK RF00.0/000.0 NOSIG
Conditions at: YBCS (CAIRNS AIRPORT , AU) observed 0130 UTC 16 June 2019
Temperature: 26.0°C (79°F)
Dewpoint: 19.0°C (66°F) [RH = 65%]
Pressure (altimeter): 30.00 inches Hg (1016.0 mb)
Winds: from the S (170 degrees) at 10 MPH (9 knots; 4.6 m/s)
Visibility: 6 or more miles (10+ km)
Ceiling: 6700 feet AGL
Clouds: overcast cloud deck at 6700 feet AGL
Weather: no significant weather observed at this time

METAR text: YBCS 160100Z AUTO 16010KT 9999 // BKN069 26/18 Q1016 RMK RF00.0/000.0 NOSIG
Conditions at: YBCS (CAIRNS AIRPORT , AU) observed 0100 UTC 16 June 2019
Temperature: 26.0°C (79°F)
Dewpoint: 18.0°C (64°F) [RH = 61%]
Pressure (altimeter): 30.00 inches Hg (1016.0 mb)
Winds: from the SSE (160 degrees) at 12 MPH (10 knots; 5.1 m/s)
Visibility: 6 or more miles (10+ km)
Ceiling: 6900 feet AGL
Clouds: broken clouds at 6900 feet AGL
Weather: no significant weather observed at this time

METAR text: YBCS 160030Z AUTO 18009KT 9999 // BKN058 OVC067 24/20 Q1017 RMK RF00.0/000.0 NOSIG
Conditions at: YBCS (CAIRNS AIRPORT , AU) observed 0030 UTC 16 June 2019
Temperature: 24.0°C (75°F)
Dewpoint: 20.0°C (68°F) [RH = 78%]
Pressure (altimeter): 30.03 inches Hg (1017.0 mb)
Winds: from the S (180 degrees) at 10 MPH (9 knots; 4.6 m/s)
Visibility: 6 or more miles (10+ km)
Ceiling: 5800 feet AGL
Clouds: broken clouds at 5800 feet AGL
overcast cloud deck at 6700 feet AGL
Weather: no significant weather observed at this time

METAR text: YBCS 160000Z AUTO 17009KT 9999 // SCT034 SCT045 OVC052 23/19 Q1017 RMK RF00.0/000.0 NOSIG
Conditions at: YBCS (CAIRNS AIRPORT , AU) observed 0000 UTC 16 June 2019
Temperature: 23.0°C (73°F)
Dewpoint: 19.0°C (66°F) [RH = 78%]
Pressure (altimeter): 30.03 inches Hg (1017.0 mb)
Winds: from the S (170 degrees) at 10 MPH (9 knots; 4.6 m/s)
Visibility: 6 or more miles (10+ km)
Ceiling: 5200 feet AGL
Clouds: scattered clouds at 3400 feet AGL
scattered clouds at 4500 feet AGL
overcast cloud deck at 5200 feet AGL
Weather: no significant weather observed at this time

METAR text: YBCS 152330Z AUTO 17008KT 9999 // BKN040 23/18 Q1017 RMK RF00.0/000.0 NOSIG
Conditions at: YBCS (CAIRNS AIRPORT , AU) observed 2330 UTC 15 June 2019
Temperature: 23.0°C (73°F)
Dewpoint: 18.0°C (64°F) [RH = 73%]
Pressure (altimeter): 30.03 inches Hg (1017.0 mb)
Winds: from the S (170 degrees) at 9 MPH (8 knots; 4.1 m/s)
Visibility: 6 or more miles (10+ km)
Ceiling: 4000 feet AGL
Clouds: broken clouds at 4000 feet AGL
Weather: no significant weather observed at this time

Forecast for: AMD
Text: TAF AMD YBCS 170859Z 1708/1806 16008KT 9999 SCT025 SCT070
Forecast period: 0800 UTC 17 June 2019 to 0100 UTC 18 June 2019
Forecast type: FROM: standard forecast or significant change
Winds: from the SSE (160 degrees) at 9 MPH (8 knots; 4.1 m/s)
Visibility: 6 or more miles 10+ km)
Ceiling: at least 12,000 feet AGL
Clouds: scattered clouds at 2500 feet AGL
scattered clouds at 7000 feet AGL
Weather: no significant weather forecast for this period
Text: FM180100 12012KT 9999 NSW FEW030 SCT070
Forecast period: 0100 to 0600 UTC 18 June 2019
Forecast type: FROM: standard forecast or significant change
Winds: from the ESE (120 degrees) at 14 MPH (12 knots; 6.2 m/s)
Visibility: 6 or more miles 10+ km)
Ceiling: at least 12,000 feet AGL
Clouds: few clouds at 3000 feet AGL
scattered clouds at 7000 feet AGL
Weather: NSW  (no significant weather)